sensor_id;sensor_type;location;lat;lon;timestamp;temperature;humidity
30069;DHT22;16894;49.456;10.644;2022-11-15T00:00:15;4.20;99.90
30069;DHT22;16894;49.456;10.644;2022-11-15T00:02:41;4.10;99.90
30069;DHT22;16894;49.456;10.644;2022-11-15T00:05:07;4.30;99.90
30069;DHT22;16894;49.456;10.644;2022-11-15T00:07:32;4.30;99.90
30069;DHT22;16894;49.456;10.644;2022-11-15T00:09:58;4.40;99.90
30069;DHT22;16894;49.456;10.644;2022-11-15T00:12:24;4.30;99.90
30069;DHT22;16894;49.456;10.644;2022-11-15T00:14:49;4.20;99.90
30069;DHT22;16894;49.456;10.644;2022-11-15T00:17:15;4.20;99.90
30069;DHT22;16894;49.456;10.644;2022-11-15T00:19:40;4.30;99.90
30069;DHT22;16894;49.456;10.644;2022-11-15T00:22:06;4.20;99.90
30069;DHT22;16894;49.456;10.644;2022-11-15T00:24:31;4.00;99.90
30069;DHT22;16894;49.456;10.644;2022-11-15T00:26:57;3.90;99.90
30069;DHT22;16894;49.456;10.644;2022-11-15T00:29:23;3.80;99.90
30069;DHT22;16894;49.456;10.644;2022-11-15T00:31:48;3.90;99.90
30069;DHT22;16894;49.456;10.644;2022-11-15T00:34:14;3.90;99.90
30069;DHT22;16894;49.456;10.644;2022-11-15T00:36:39;3.80;99.90
30069;DHT22;16894;49.456;10.644;2022-11-15T00:39:05;3.80;99.90
30069;DHT22;16894;49.456;10.644;2022-11-15T00:41:31;3.80;99.90
30069;DHT22;16894;49.456;10.644;2022-11-15T00:43:57;3.80;99.90
30069;DHT22;16894;49.456;10.644;2022-11-15T00:46:22;3.80;99.90
30069;DHT22;16894;49.456;10.644;2022-11-15T00:48:48;3.80;99.90
30069;DHT22;16894;49.456;10.644;2022-11-15T00:51:13;3.70;99.90
30069;DHT22;16894;49.456;10.644;2022-11-15T00:53:39;3.70;99.90
30069;DHT22;16894;49.456;10.644;2022-11-15T00:56:05;3.60;99.90
30069;DHT22;16894;49.456;10.644;2022-11-15T00:58:30;3.60;99.90
30069;DHT22;16894;49.456;10.644;2022-11-15T01:00:56;3.60;99.90
30069;DHT22;16894;49.456;10.644;2022-11-15T01:03:22;3.50;99.90
30069;DHT22;16894;49.456;10.644;2022-11-15T01:05:47;3.50;99.90
30069;DHT22;16894;49.456;10.644;2022-11-15T01:08:14;3.60;99.90
30069;DHT22;16894;49.456;10.644;2022-11-15T01:10:40;3.60;99.90
30069;DHT22;16894;49.456;10.644;2022-11-15T01:13:06;3.50;99.90
30069;DHT22;16894;49.456;10.644;2022-11-15T01:15:32;3.50;99.90
30069;DHT22;16894;49.456;10.644;2022-11-15T01:17:57;3.30;99.90
30069;DHT22;16894;49.456;10.644;2022-11-15T01:20:23;3.30;99.90
30069;DHT22;16894;49.456;10.644;2022-11-15T01:22:48;3.30;99.90
30069;DHT22;16894;49.456;10.644;2022-11-15T01:25:14;3.30;99.90
30069;DHT22;16894;49.456;10.644;2022-11-15T01:27:40;3.30;99.90
30069;DHT22;16894;49.456;10.644;2022-11-15T01:30:06;3.30;99.90
30069;DHT22;16894;49.456;10.644;2022-11-15T01:32:32;3.30;99.90
30069;DHT22;16894;49.456;10.644;2022-11-15T01:34:57;3.30;99.90
30069;DHT22;16894;49.456;10.644;2022-11-15T01:37:23;3.20;99.90
30069;DHT22;16894;49.456;10.644;2022-11-15T01:39:49;3.20;99.90
30069;DHT22;16894;49.456;10.644;2022-11-15T01:42:14;3.30;99.90
30069;DHT22;16894;49.456;10.644;2022-11-15T01:44:49;3.30;99.90
30069;DHT22;16894;49.456;10.644;2022-11-15T01:47:38;3.30;99.90
30069;DHT22;16894;49.456;10.644;2022-11-15T01:50:10;3.40;99.90
30069;DHT22;16894;49.456;10.644;2022-11-15T01:52:36;3.40;99.90
30069;DHT22;16894;49.456;10.644;2022-11-15T01:55:19;3.50;99.90
30069;DHT22;16894;49.456;10.644;2022-11-15T01:57:47;3.60;99.90
30069;DHT22;16894;49.456;10.644;2022-11-15T02:00:14;3.60;99.90
30069;DHT22;16894;49.456;10.644;2022-11-15T02:02:40;3.60;99.90
30069;DHT22;16894;49.456;10.644;2022-11-15T02:05:06;3.60;99.90
30069;DHT22;16894;49.456;10.644;2022-11-15T02:07:34;3.70;99.90
30069;DHT22;16894;49.456;10.644;2022-11-15T02:10:08;3.60;99.90
30069;DHT22;16894;49.456;10.644;2022-11-15T02:12:34;3.60;99.90
30069;DHT22;16894;49.456;10.644;2022-11-15T02:15:01;3.60;99.90
30069;DHT22;16894;49.456;10.644;2022-11-15T02:20:40;3.70;99.90
30069;DHT22;16894;49.456;10.644;2022-11-15T02:23:56;3.80;99.90
30069;DHT22;16894;49.456;10.644;2022-11-15T02:32:30;3.80;99.90
30069;DHT22;16894;49.456;10.644;2022-11-15T02:37:56;3.90;99.90
30069;DHT22;16894;49.456;10.644;2022-11-15T02:40:45;4.00;99.90
30069;DHT22;16894;49.456;10.644;2022-11-15T02:43:21;4.00;99.90
30069;DHT22;16894;49.456;10.644;2022-11-15T02:49:17;4.10;99.90
30069;DHT22;16894;49.456;10.644;2022-11-15T02:51:46;4.10;99.90
30069;DHT22;16894;49.456;10.644;2022-11-15T02:54:17;4.10;99.90
30069;DHT22;16894;49.456;10.644;2022-11-15T02:56:45;4.20;99.90
30069;DHT22;16894;49.456;10.644;2022-11-15T03:02:09;4.30;99.90
30069;DHT22;16894;49.456;10.644;2022-11-15T03:13:13;4.40;99.90
30069;DHT22;16894;49.456;10.644;2022-11-15T03:15:49;4.40;99.90
30069;DHT22;16894;49.456;10.644;2022-11-15T03:18:32;4.30;99.90
30069;DHT22;16894;49.456;10.644;2022-11-15T03:21:01;4.20;99.90
30069;DHT22;16894;49.456;10.644;2022-11-15T03:23:30;4.10;99.90
30069;DHT22;16894;49.456;10.644;2022-11-15T03:25:58;4.00;99.90
30069;DHT22;16894;49.456;10.644;2022-11-15T03:28:36;3.90;99.90
30069;DHT22;16894;49.456;10.644;2022-11-15T03:31:03;3.80;99.90
30069;DHT22;16894;49.456;10.644;2022-11-15T03:33:51;3.80;99.90
30069;DHT22;16894;49.456;10.644;2022-11-15T03:36:17;3.80;99.90
30069;DHT22;16894;49.456;10.644;2022-11-15T03:38:44;3.80;99.90
30069;DHT22;16894;49.456;10.644;2022-11-15T03:41:23;3.80;99.90
30069;DHT22;16894;49.456;10.644;2022-11-15T03:43:56;3.70;99.90
30069;DHT22;16894;49.456;10.644;2022-11-15T03:46:34;3.60;99.90
30069;DHT22;16894;49.456;10.644;2022-11-15T03:49:24;3.60;99.90
30069;DHT22;16894;49.456;10.644;2022-11-15T03:51:50;3.60;99.90
30069;DHT22;16894;49.456;10.644;2022-11-15T03:54:16;3.70;99.90
30069;DHT22;16894;49.456;10.644;2022-11-15T03:56:42;3.70;99.90
30069;DHT22;16894;49.456;10.644;2022-11-15T03:59:07;3.80;99.90
30069;DHT22;16894;49.456;10.644;2022-11-15T04:01:33;3.90;99.90
30069;DHT22;16894;49.456;10.644;2022-11-15T04:03:58;3.90;99.90
30069;DHT22;16894;49.456;10.644;2022-11-15T04:06:24;3.80;99.90
30069;DHT22;16894;49.456;10.644;2022-11-15T04:08:50;3.80;99.90
30069;DHT22;16894;49.456;10.644;2022-11-15T04:11:15;3.80;99.90
30069;DHT22;16894;49.456;10.644;2022-11-15T04:13:41;3.90;99.90
30069;DHT22;16894;49.456;10.644;2022-11-15T04:16:06;3.90;99.90
30069;DHT22;16894;49.456;10.644;2022-11-15T04:18:32;3.90;99.90
30069;DHT22;16894;49.456;10.644;2022-11-15T04:20:58;3.80;99.90
30069;DHT22;16894;49.456;10.644;2022-11-15T04:23:42;3.80;99.90
30069;DHT22;16894;49.456;10.644;2022-11-15T04:26:21;3.70;99.90
30069;DHT22;16894;49.456;10.644;2022-11-15T04:28:48;3.70;99.90
30069;DHT22;16894;49.456;10.644;2022-11-15T04:31:32;3.80;99.90
30069;DHT22;16894;49.456;10.644;2022-11-15T04:33:58;3.80;99.90
30069;DHT22;16894;49.456;10.644;2022-11-15T04:36:24;3.80;99.90
30069;DHT22;16894;49.456;10.644;2022-11-15T04:39:09;3.80;99.90
30069;DHT22;16894;49.456;10.644;2022-11-15T04:41:35;3.80;99.90
30069;DHT22;16894;49.456;10.644;2022-11-15T04:44:00;3.80;99.90
30069;DHT22;16894;49.456;10.644;2022-11-15T04:46:26;3.70;99.90
30069;DHT22;16894;49.456;10.644;2022-11-15T04:48:52;3.80;99.90
30069;DHT22;16894;49.456;10.644;2022-11-15T04:51:19;3.70;99.90
30069;DHT22;16894;49.456;10.644;2022-11-15T04:53:44;3.50;99.90
30069;DHT22;16894;49.456;10.644;2022-11-15T04:56:10;3.40;99.90
30069;DHT22;16894;49.456;10.644;2022-11-15T04:58:36;3.40;99.90
30069;DHT22;16894;49.456;10.644;2022-11-15T05:01:13;3.40;99.90
30069;DHT22;16894;49.456;10.644;2022-11-15T05:03:43;3.50;99.90
30069;DHT22;16894;49.456;10.644;2022-11-15T05:06:27;3.50;99.90
30069;DHT22;16894;49.456;10.644;2022-11-15T05:08:53;3.40;99.90
30069;DHT22;16894;49.456;10.644;2022-11-15T05:11:19;3.30;99.90
30069;DHT22;16894;49.456;10.644;2022-11-15T05:13:45;3.40;99.90
30069;DHT22;16894;49.456;10.644;2022-11-15T05:16:11;3.50;99.90
30069;DHT22;16894;49.456;10.644;2022-11-15T05:18:37;3.60;99.90
30069;DHT22;16894;49.456;10.644;2022-11-15T05:21:07;3.50;99.90
30069;DHT22;16894;49.456;10.644;2022-11-15T05:23:32;3.40;99.90
30069;DHT22;16894;49.456;10.644;2022-11-15T05:25:59;3.40;99.90
30069;DHT22;16894;49.456;10.644;2022-11-15T05:28:25;3.40;99.90
30069;DHT22;16894;49.456;10.644;2022-11-15T05:30:51;3.30;99.90
30069;DHT22;16894;49.456;10.644;2022-11-15T05:33:17;3.20;99.90
30069;DHT22;16894;49.456;10.644;2022-11-15T05:35:50;3.10;99.90
30069;DHT22;16894;49.456;10.644;2022-11-15T05:38:19;3.10;99.90
30069;DHT22;16894;49.456;10.644;2022-11-15T05:40:45;3.00;99.90
30069;DHT22;16894;49.456;10.644;2022-11-15T05:43:10;2.90;99.90
30069;DHT22;16894;49.456;10.644;2022-11-15T05:45:36;2.90;99.90
30069;DHT22;16894;49.456;10.644;2022-11-15T05:48:05;2.90;99.90
30069;DHT22;16894;49.456;10.644;2022-11-15T05:50:32;2.90;99.90
30069;DHT22;16894;49.456;10.644;2022-11-15T05:52:58;3.00;99.90
30069;DHT22;16894;49.456;10.644;2022-11-15T05:55:24;3.10;99.90
30069;DHT22;16894;49.456;10.644;2022-11-15T05:57:50;3.00;99.90
30069;DHT22;16894;49.456;10.644;2022-11-15T06:00:16;3.10;99.90
30069;DHT22;16894;49.456;10.644;2022-11-15T06:02:41;3.20;99.90
30069;DHT22;16894;49.456;10.644;2022-11-15T06:05:07;3.30;99.90
30069;DHT22;16894;49.456;10.644;2022-11-15T06:07:33;3.20;99.90
30069;DHT22;16894;49.456;10.644;2022-11-15T06:09:59;3.20;99.90
30069;DHT22;16894;49.456;10.644;2022-11-15T06:12:24;3.10;99.90
30069;DHT22;16894;49.456;10.644;2022-11-15T06:14:50;3.20;99.90
30069;DHT22;16894;49.456;10.644;2022-11-15T06:17:15;3.20;99.90
30069;DHT22;16894;49.456;10.644;2022-11-15T06:19:41;3.20;99.90
30069;DHT22;16894;49.456;10.644;2022-11-15T06:22:07;3.20;99.90
30069;DHT22;16894;49.456;10.644;2022-11-15T06:24:32;3.10;99.90
30069;DHT22;16894;49.456;10.644;2022-11-15T06:26:58;2.80;99.90
30069;DHT22;16894;49.456;10.644;2022-11-15T06:29:24;2.90;99.90
30069;DHT22;16894;49.456;10.644;2022-11-15T06:31:49;3.00;99.90
30069;DHT22;16894;49.456;10.644;2022-11-15T06:34:15;2.90;99.90
30069;DHT22;16894;49.456;10.644;2022-11-15T06:36:41;3.00;99.90
30069;DHT22;16894;49.456;10.644;2022-11-15T06:39:06;3.00;99.90
30069;DHT22;16894;49.456;10.644;2022-11-15T06:41:35;3.00;99.90
30069;DHT22;16894;49.456;10.644;2022-11-15T06:44:01;2.90;99.90
30069;DHT22;16894;49.456;10.644;2022-11-15T06:46:27;2.90;99.90
30069;DHT22;16894;49.456;10.644;2022-11-15T06:48:53;2.80;99.90
30069;DHT22;16894;49.456;10.644;2022-11-15T06:51:18;2.80;99.90
30069;DHT22;16894;49.456;10.644;2022-11-15T06:53:44;2.70;99.90
30069;DHT22;16894;49.456;10.644;2022-11-15T06:56:10;2.60;99.90
30069;DHT22;16894;49.456;10.644;2022-11-15T06:58:36;2.60;99.90
30069;DHT22;16894;49.456;10.644;2022-11-15T07:01:07;2.70;99.90
30069;DHT22;16894;49.456;10.644;2022-11-15T07:03:52;2.80;99.90
30069;DHT22;16894;49.456;10.644;2022-11-15T07:06:17;2.80;99.90
30069;DHT22;16894;49.456;10.644;2022-11-15T07:08:43;2.80;99.90
30069;DHT22;16894;49.456;10.644;2022-11-15T07:11:09;2.80;99.90
30069;DHT22;16894;49.456;10.644;2022-11-15T07:13:36;2.90;99.90
30069;DHT22;16894;49.456;10.644;2022-11-15T07:16:07;2.80;99.90
30069;DHT22;16894;49.456;10.644;2022-11-15T07:18:37;2.70;99.90
30069;DHT22;16894;49.456;10.644;2022-11-15T07:21:04;2.60;99.90
30069;DHT22;16894;49.456;10.644;2022-11-15T07:23:30;2.70;99.90
30069;DHT22;16894;49.456;10.644;2022-11-15T07:25:57;2.70;99.90
30069;DHT22;16894;49.456;10.644;2022-11-15T07:28:24;2.70;99.90
30069;DHT22;16894;49.456;10.644;2022-11-15T07:30:50;2.70;99.90
30069;DHT22;16894;49.456;10.644;2022-11-15T07:33:15;2.70;99.90
30069;DHT22;16894;49.456;10.644;2022-11-15T07:35:41;2.80;99.90
30069;DHT22;16894;49.456;10.644;2022-11-15T07:38:07;2.80;99.90
30069;DHT22;16894;49.456;10.644;2022-11-15T07:40:33;2.90;99.90
30069;DHT22;16894;49.456;10.644;2022-11-15T07:43:04;2.90;99.90
30069;DHT22;16894;49.456;10.644;2022-11-15T07:45:30;2.90;99.90
30069;DHT22;16894;49.456;10.644;2022-11-15T07:47:56;3.00;99.90
30069;DHT22;16894;49.456;10.644;2022-11-15T07:50:26;3.00;99.90
30069;DHT22;16894;49.456;10.644;2022-11-15T07:52:58;3.10;99.90
30069;DHT22;16894;49.456;10.644;2022-11-15T07:55:26;3.20;99.90
30069;DHT22;16894;49.456;10.644;2022-11-15T07:57:52;3.30;99.90
30069;DHT22;16894;49.456;10.644;2022-11-15T08:00:18;3.40;99.90
30069;DHT22;16894;49.456;10.644;2022-11-15T08:02:45;3.50;99.90
30069;DHT22;16894;49.456;10.644;2022-11-15T08:05:10;3.60;99.90
30069;DHT22;16894;49.456;10.644;2022-11-15T08:07:36;3.70;99.90
30069;DHT22;16894;49.456;10.644;2022-11-15T08:10:04;3.80;99.90
30069;DHT22;16894;49.456;10.644;2022-11-15T08:12:31;4.00;99.90
30069;DHT22;16894;49.456;10.644;2022-11-15T08:14:57;4.10;99.90
30069;DHT22;16894;49.456;10.644;2022-11-15T08:17:24;4.30;99.90
30069;DHT22;16894;49.456;10.644;2022-11-15T08:19:49;4.50;99.90
30069;DHT22;16894;49.456;10.644;2022-11-15T08:22:15;4.60;99.90
30069;DHT22;16894;49.456;10.644;2022-11-15T08:24:40;4.80;99.90
30069;DHT22;16894;49.456;10.644;2022-11-15T08:27:06;4.90;99.90
30069;DHT22;16894;49.456;10.644;2022-11-15T08:29:44;5.10;99.90
30069;DHT22;16894;49.456;10.644;2022-11-15T08:32:10;5.30;99.90
30069;DHT22;16894;49.456;10.644;2022-11-15T08:34:37;5.30;99.90
30069;DHT22;16894;49.456;10.644;2022-11-15T08:37:02;5.40;99.90
30069;DHT22;16894;49.456;10.644;2022-11-15T08:39:28;5.40;99.90
30069;DHT22;16894;49.456;10.644;2022-11-15T08:41:54;5.50;99.90
30069;DHT22;16894;49.456;10.644;2022-11-15T08:44:19;5.60;99.90
30069;DHT22;16894;49.456;10.644;2022-11-15T08:46:48;5.70;99.90
30069;DHT22;16894;49.456;10.644;2022-11-15T08:49:13;5.90;99.90
30069;DHT22;16894;49.456;10.644;2022-11-15T08:51:39;6.00;99.90
30069;DHT22;16894;49.456;10.644;2022-11-15T08:54:05;6.20;99.90
30069;DHT22;16894;49.456;10.644;2022-11-15T08:56:31;6.30;99.90
30069;DHT22;16894;49.456;10.644;2022-11-15T08:58:56;6.50;99.90
30069;DHT22;16894;49.456;10.644;2022-11-15T09:01:22;6.60;99.90
30069;DHT22;16894;49.456;10.644;2022-11-15T09:03:48;6.80;99.90
30069;DHT22;16894;49.456;10.644;2022-11-15T09:06:14;6.90;99.90
30069;DHT22;16894;49.456;10.644;2022-11-15T09:08:40;7.10;99.90
30069;DHT22;16894;49.456;10.644;2022-11-15T09:11:07;7.20;99.90
30069;DHT22;16894;49.456;10.644;2022-11-15T09:13:33;7.30;99.90
30069;DHT22;16894;49.456;10.644;2022-11-15T09:16:00;7.40;99.90
30069;DHT22;16894;49.456;10.644;2022-11-15T09:18:27;7.50;99.90
30069;DHT22;16894;49.456;10.644;2022-11-15T09:20:58;7.50;99.90
30069;DHT22;16894;49.456;10.644;2022-11-15T09:23:25;7.60;99.90
30069;DHT22;16894;49.456;10.644;2022-11-15T09:25:52;7.70;99.90
30069;DHT22;16894;49.456;10.644;2022-11-15T09:28:18;7.80;99.90
30069;DHT22;16894;49.456;10.644;2022-11-15T09:30:43;7.90;99.90
30069;DHT22;16894;49.456;10.644;2022-11-15T09:33:10;8.10;99.90
30069;DHT22;16894;49.456;10.644;2022-11-15T09:35:36;8.30;99.90
30069;DHT22;16894;49.456;10.644;2022-11-15T09:38:03;8.50;99.90
30069;DHT22;16894;49.456;10.644;2022-11-15T09:40:30;8.70;99.90
30069;DHT22;16894;49.456;10.644;2022-11-15T09:43:24;8.90;99.90
30069;DHT22;16894;49.456;10.644;2022-11-15T09:46:15;9.10;99.90
30069;DHT22;16894;49.456;10.644;2022-11-15T09:51:25;9.60;99.90
30069;DHT22;16894;49.456;10.644;2022-11-15T09:54:03;9.80;99.90
30069;DHT22;16894;49.456;10.644;2022-11-15T09:56:31;9.90;99.90
30069;DHT22;16894;49.456;10.644;2022-11-15T10:02:13;9.90;99.90
30069;DHT22;16894;49.456;10.644;2022-11-15T10:04:43;10.20;99.90
30069;DHT22;16894;49.456;10.644;2022-11-15T10:07:27;10.50;99.90
30069;DHT22;16894;49.456;10.644;2022-11-15T10:10:02;10.80;99.90
30069;DHT22;16894;49.456;10.644;2022-11-15T10:12:30;10.90;99.90
30069;DHT22;16894;49.456;10.644;2022-11-15T10:15:05;10.90;99.90
30069;DHT22;16894;49.456;10.644;2022-11-15T10:20:29;11.10;99.90
30069;DHT22;16894;49.456;10.644;2022-11-15T10:22:56;11.20;99.90
30069;DHT22;16894;49.456;10.644;2022-11-15T10:25:29;11.10;99.90
30069;DHT22;16894;49.456;10.644;2022-11-15T10:30:37;11.30;99.90
30069;DHT22;16894;49.456;10.644;2022-11-15T10:33:32;11.40;99.90
30069;DHT22;16894;49.456;10.644;2022-11-15T10:46:28;12.10;99.90
30069;DHT22;16894;49.456;10.644;2022-11-15T10:49:17;12.20;99.90
30069;DHT22;16894;49.456;10.644;2022-11-15T10:54:12;12.60;99.90
30069;DHT22;16894;49.456;10.644;2022-11-15T10:56:40;12.90;99.90
30069;DHT22;16894;49.456;10.644;2022-11-15T10:59:18;13.00;99.90
30069;DHT22;16894;49.456;10.644;2022-11-15T11:01:47;13.10;99.90
30069;DHT22;16894;49.456;10.644;2022-11-15T11:04:13;13.30;99.90
30069;DHT22;16894;49.456;10.644;2022-11-15T11:06:55;13.30;99.90
30069;DHT22;16894;49.456;10.644;2022-11-15T11:09:27;13.30;99.90
30069;DHT22;16894;49.456;10.644;2022-11-15T11:11:53;13.30;99.90
30069;DHT22;16894;49.456;10.644;2022-11-15T11:14:24;13.30;99.90
30069;DHT22;16894;49.456;10.644;2022-11-15T11:22:47;13.00;99.90
30069;DHT22;16894;49.456;10.644;2022-11-15T11:26:01;13.10;99.90
30069;DHT22;16894;49.456;10.644;2022-11-15T11:28:43;13.30;99.90
30069;DHT22;16894;49.456;10.644;2022-11-15T11:36:32;13.60;99.90
30069;DHT22;16894;49.456;10.644;2022-11-15T11:39:31;13.70;99.90
30069;DHT22;16894;49.456;10.644;2022-11-15T11:47:53;13.70;99.90
30069;DHT22;16894;49.456;10.644;2022-11-15T11:50:26;13.70;99.90
30069;DHT22;16894;49.456;10.644;2022-11-15T11:53:12;13.60;99.90
30069;DHT22;16894;49.456;10.644;2022-11-15T11:55:51;13.70;99.90
30069;DHT22;16894;49.456;10.644;2022-11-15T11:58:43;13.70;99.90
30069;DHT22;16894;49.456;10.644;2022-11-15T12:01:26;13.70;99.90
30069;DHT22;16894;49.456;10.644;2022-11-15T12:06:52;13.70;99.90
30069;DHT22;16894;49.456;10.644;2022-11-15T12:15:02;13.70;99.90
30069;DHT22;16894;49.456;10.644;2022-11-15T12:17:29;13.70;99.90
30069;DHT22;16894;49.456;10.644;2022-11-15T12:20:03;13.60;99.90
30069;DHT22;16894;49.456;10.644;2022-11-15T12:22:38;13.60;99.90
30069;DHT22;16894;49.456;10.644;2022-11-15T12:28:00;13.60;99.90
30069;DHT22;16894;49.456;10.644;2022-11-15T12:33:48;13.70;99.90
30069;DHT22;16894;49.456;10.644;2022-11-15T12:38:55;13.90;99.90
30069;DHT22;16894;49.456;10.644;2022-11-15T12:41:26;13.90;99.90
30069;DHT22;16894;49.456;10.644;2022-11-15T12:43:52;14.00;99.90
30069;DHT22;16894;49.456;10.644;2022-11-15T12:48:46;14.40;99.90
30069;DHT22;16894;49.456;10.644;2022-11-15T12:51:11;14.50;99.90
30069;DHT22;16894;49.456;10.644;2022-11-15T12:53:37;14.40;99.90
30069;DHT22;16894;49.456;10.644;2022-11-15T12:59:38;14.20;99.90
30069;DHT22;16894;49.456;10.644;2022-11-15T13:06:52;14.20;99.90
30069;DHT22;16894;49.456;10.644;2022-11-15T13:12:10;14.10;99.90
30069;DHT22;16894;49.456;10.644;2022-11-15T13:14:54;14.10;99.90
30069;DHT22;16894;49.456;10.644;2022-11-15T13:19:48;14.30;99.90
30069;DHT22;16894;49.456;10.644;2022-11-15T13:22:14;14.50;99.90
30069;DHT22;16894;49.456;10.644;2022-11-15T13:25:00;14.80;99.90
30069;DHT22;16894;49.456;10.644;2022-11-15T13:27:26;15.00;99.90
30069;DHT22;16894;49.456;10.644;2022-11-15T13:29:53;15.30;99.90
30069;DHT22;16894;49.456;10.644;2022-11-15T13:32:18;15.40;99.90
30069;DHT22;16894;49.456;10.644;2022-11-15T13:34:49;15.50;99.90
30069;DHT22;16894;49.456;10.644;2022-11-15T13:39:47;15.50;99.90
30069;DHT22;16894;49.456;10.644;2022-11-15T13:42:18;15.40;99.90
30069;DHT22;16894;49.456;10.644;2022-11-15T13:44:58;15.40;99.90
30069;DHT22;16894;49.456;10.644;2022-11-15T13:47:28;15.60;99.90
30069;DHT22;16894;49.456;10.644;2022-11-15T13:49:57;15.70;99.90
30069;DHT22;16894;49.456;10.644;2022-11-15T13:52:27;15.40;99.90
30069;DHT22;16894;49.456;10.644;2022-11-15T13:55:04;15.10;99.90
30069;DHT22;16894;49.456;10.644;2022-11-15T13:57:46;14.70;99.90
30069;DHT22;16894;49.456;10.644;2022-11-15T14:00:43;14.30;99.90
30069;DHT22;16894;49.456;10.644;2022-11-15T14:03:25;14.00;99.90
30069;DHT22;16894;49.456;10.644;2022-11-15T14:06:15;13.80;99.90
30069;DHT22;16894;49.456;10.644;2022-11-15T14:11:37;13.50;99.90
30069;DHT22;16894;49.456;10.644;2022-11-15T14:16:42;13.40;99.90
30069;DHT22;16894;49.456;10.644;2022-11-15T14:19:32;13.30;99.90
30069;DHT22;16894;49.456;10.644;2022-11-15T14:22:24;13.20;99.90
30069;DHT22;16894;49.456;10.644;2022-11-15T14:25:35;12.90;99.90
30069;DHT22;16894;49.456;10.644;2022-11-15T14:28:30;12.90;99.90
30069;DHT22;16894;49.456;10.644;2022-11-15T14:30:59;12.90;99.90
30069;DHT22;16894;49.456;10.644;2022-11-15T14:33:27;12.80;99.90
30069;DHT22;16894;49.456;10.644;2022-11-15T14:35:54;12.80;99.90
30069;DHT22;16894;49.456;10.644;2022-11-15T14:38:23;12.60;99.90
30069;DHT22;16894;49.456;10.644;2022-11-15T14:40:50;12.50;99.90
30069;DHT22;16894;49.456;10.644;2022-11-15T14:43:16;12.40;99.90
30069;DHT22;16894;49.456;10.644;2022-11-15T14:45:42;12.30;99.90
30069;DHT22;16894;49.456;10.644;2022-11-15T14:48:08;12.30;99.90
30069;DHT22;16894;49.456;10.644;2022-11-15T14:50:35;12.20;99.90
30069;DHT22;16894;49.456;10.644;2022-11-15T14:53:01;12.10;99.90
30069;DHT22;16894;49.456;10.644;2022-11-15T14:55:27;12.00;99.90
30069;DHT22;16894;49.456;10.644;2022-11-15T14:57:54;11.90;99.90
30069;DHT22;16894;49.456;10.644;2022-11-15T15:00:20;11.70;99.90
30069;DHT22;16894;49.456;10.644;2022-11-15T15:02:47;11.60;99.90
30069;DHT22;16894;49.456;10.644;2022-11-15T15:05:38;11.60;99.90
30069;DHT22;16894;49.456;10.644;2022-11-15T15:08:05;11.50;99.90
30069;DHT22;16894;49.456;10.644;2022-11-15T15:10:36;11.40;99.90
30069;DHT22;16894;49.456;10.644;2022-11-15T15:13:03;11.30;99.90
30069;DHT22;16894;49.456;10.644;2022-11-15T15:15:36;11.20;99.90
30069;DHT22;16894;49.456;10.644;2022-11-15T15:18:05;11.10;99.90
30069;DHT22;16894;49.456;10.644;2022-11-15T15:20:34;11.10;99.90
30069;DHT22;16894;49.456;10.644;2022-11-15T15:23:00;11.00;99.90
30069;DHT22;16894;49.456;10.644;2022-11-15T15:25:29;11.00;99.90
30069;DHT22;16894;49.456;10.644;2022-11-15T15:27:56;10.90;99.90
30069;DHT22;16894;49.456;10.644;2022-11-15T15:30:22;10.90;99.90
30069;DHT22;16894;49.456;10.644;2022-11-15T15:32:49;10.90;99.90
30069;DHT22;16894;49.456;10.644;2022-11-15T15:35:16;10.80;99.90
30069;DHT22;16894;49.456;10.644;2022-11-15T15:37:43;10.70;99.90
30069;DHT22;16894;49.456;10.644;2022-11-15T15:40:16;10.60;99.90
30069;DHT22;16894;49.456;10.644;2022-11-15T15:42:43;10.60;99.90
30069;DHT22;16894;49.456;10.644;2022-11-15T15:45:09;10.50;99.90
30069;DHT22;16894;49.456;10.644;2022-11-15T15:47:35;10.50;99.90
30069;DHT22;16894;49.456;10.644;2022-11-15T15:50:00;10.40;99.90
30069;DHT22;16894;49.456;10.644;2022-11-15T15:52:26;10.30;99.90
30069;DHT22;16894;49.456;10.644;2022-11-15T15:54:52;10.20;99.90
30069;DHT22;16894;49.456;10.644;2022-11-15T15:57:17;10.10;99.90
30069;DHT22;16894;49.456;10.644;2022-11-15T15:59:44;10.10;99.90
30069;DHT22;16894;49.456;10.644;2022-11-15T16:02:13;10.00;99.90
30069;DHT22;16894;49.456;10.644;2022-11-15T16:04:39;9.90;99.90
30069;DHT22;16894;49.456;10.644;2022-11-15T16:07:05;9.70;99.90
30069;DHT22;16894;49.456;10.644;2022-11-15T16:09:37;9.60;99.90
30069;DHT22;16894;49.456;10.644;2022-11-15T16:12:21;9.50;99.90
30069;DHT22;16894;49.456;10.644;2022-11-15T16:14:47;9.40;99.90
30069;DHT22;16894;49.456;10.644;2022-11-15T16:17:24;9.30;99.90
30069;DHT22;16894;49.456;10.644;2022-11-15T16:19:50;9.30;99.90
30069;DHT22;16894;49.456;10.644;2022-11-15T16:22:16;9.20;99.90
30069;DHT22;16894;49.456;10.644;2022-11-15T16:24:41;9.20;99.90
30069;DHT22;16894;49.456;10.644;2022-11-15T16:27:19;9.10;99.90
30069;DHT22;16894;49.456;10.644;2022-11-15T16:29:45;9.10;99.90
30069;DHT22;16894;49.456;10.644;2022-11-15T16:32:12;9.20;99.90
30069;DHT22;16894;49.456;10.644;2022-11-15T16:34:37;9.10;99.90
30069;DHT22;16894;49.456;10.644;2022-11-15T16:37:04;9.10;99.90
30069;DHT22;16894;49.456;10.644;2022-11-15T16:39:30;9.10;99.90
30069;DHT22;16894;49.456;10.644;2022-11-15T16:41:57;9.00;99.90
30069;DHT22;16894;49.456;10.644;2022-11-15T16:44:23;9.00;99.90
30069;DHT22;16894;49.456;10.644;2022-11-15T16:46:49;9.00;99.90
30069;DHT22;16894;49.456;10.644;2022-11-15T16:49:19;8.90;99.90
30069;DHT22;16894;49.456;10.644;2022-11-15T16:51:46;8.90;99.90
30069;DHT22;16894;49.456;10.644;2022-11-15T16:54:12;9.00;99.90
30069;DHT22;16894;49.456;10.644;2022-11-15T16:56:38;9.00;99.90
30069;DHT22;16894;49.456;10.644;2022-11-15T16:59:05;9.00;99.90
30069;DHT22;16894;49.456;10.644;2022-11-15T17:01:33;9.00;99.90
30069;DHT22;16894;49.456;10.644;2022-11-15T17:04:00;9.00;99.90
30069;DHT22;16894;49.456;10.644;2022-11-15T17:06:40;8.90;99.90
30069;DHT22;16894;49.456;10.644;2022-11-15T17:09:17;8.90;99.90
30069;DHT22;16894;49.456;10.644;2022-11-15T17:11:43;8.70;99.90
30069;DHT22;16894;49.456;10.644;2022-11-15T17:14:10;8.80;99.90
30069;DHT22;16894;49.456;10.644;2022-11-15T17:16:35;8.80;99.90
30069;DHT22;16894;49.456;10.644;2022-11-15T17:19:03;8.80;99.90
30069;DHT22;16894;49.456;10.644;2022-11-15T17:21:30;8.80;99.90
30069;DHT22;16894;49.456;10.644;2022-11-15T17:23:58;8.80;99.90
30069;DHT22;16894;49.456;10.644;2022-11-15T17:26:24;8.80;99.90
30069;DHT22;16894;49.456;10.644;2022-11-15T17:28:54;8.80;99.90
30069;DHT22;16894;49.456;10.644;2022-11-15T17:31:19;8.80;99.90